createdAt,value
2023-05-10T00:01:15.102Z,20.95
2023-05-10T00:03:44.372Z,20.99
2023-05-10T00:06:13.091Z,21.44
2023-05-10T00:08:41.033Z,21.80
2023-05-10T00:11:09.040Z,21.49
2023-05-10T00:13:37.148Z,21.31
2023-05-10T00:16:05.286Z,21.12
2023-05-10T00:18:33.421Z,21.32
2023-05-10T00:21:02.821Z,21.63
2023-05-10T00:23:30.929Z,21.69
2023-05-10T00:25:58.900Z,21.73
2023-05-10T00:28:26.879Z,21.67
2023-05-10T00:30:54.616Z,21.01
2023-05-10T00:33:22.907Z,21.10
2023-05-10T00:35:51.223Z,20.97
2023-05-10T00:38:20.494Z,21.54
2023-05-10T00:40:48.932Z,21.23
2023-05-10T00:43:25.319Z,21.28
2023-05-10T00:45:53.620Z,21.04
2023-05-10T00:48:21.710Z,21.00
2023-05-10T00:50:50.060Z,20.80
2023-05-10T00:53:18.892Z,20.99
2023-05-10T00:55:48.292Z,20.52
2023-05-10T00:58:17.044Z,21.08
2023-05-10T01:00:45.512Z,21.15
2023-05-10T01:03:14.105Z,20.89
2023-05-10T01:05:43.217Z,21.19
2023-05-10T01:08:11.275Z,20.42
2023-05-10T01:10:39.575Z,20.81
2023-05-10T01:13:09.047Z,20.40
2023-05-10T01:15:37.808Z,20.57
2023-05-10T01:18:05.945Z,20.20
2023-05-10T01:20:40.357Z,20.07
2023-05-10T01:23:32.221Z,20.61
2023-05-10T01:26:36.190Z,20.66
2023-05-10T01:29:32.464Z,20.43
2023-05-10T01:32:18.056Z,20.66
2023-05-10T01:34:55.368Z,20.60
2023-05-10T01:37:29.475Z,20.54
2023-05-10T01:40:02.471Z,20.18
2023-05-10T01:42:38.701Z,20.33
2023-05-10T01:45:16.629Z,20.30
2023-05-10T01:47:49.014Z,19.87
2023-05-10T01:50:20.964Z,20.02
2023-05-10T01:52:54.052Z,20.19
2023-05-10T01:55:25.462Z,20.57
2023-05-10T01:57:59.012Z,20.30
2023-05-10T02:00:28.327Z,19.54
2023-05-10T02:02:58.628Z,20.15
2023-05-10T02:05:28.812Z,19.98
2023-05-10T02:07:58.855Z,20.17
2023-05-10T02:10:27.999Z,20.17
2023-05-10T02:12:57.272Z,20.44
2023-05-10T02:15:26.902Z,20.00
2023-05-10T02:17:59.289Z,20.36
2023-05-10T02:20:28.320Z,19.75
2023-05-10T02:22:58.939Z,19.89
2023-05-10T02:25:28.168Z,20.03
2023-05-10T02:27:58.766Z,19.74
2023-05-10T02:30:28.102Z,20.05
2023-05-10T02:32:58.740Z,20.11
2023-05-10T02:35:28.309Z,19.93
2023-05-10T02:37:56.997Z,19.90
2023-05-10T02:40:28.554Z,19.84
2023-05-10T02:43:00.240Z,19.85
2023-05-10T02:45:32.365Z,19.58
2023-05-10T02:48:02.242Z,19.48
2023-05-10T02:50:34.457Z,19.60
2023-05-10T02:53:04.218Z,19.87
2023-05-10T02:55:39.019Z,19.94
2023-05-10T02:58:06.992Z,20.14
2023-05-10T03:00:35.182Z,20.15
2023-05-10T03:03:04.614Z,20.30
2023-05-10T03:05:32.669Z,20.01
2023-05-10T03:08:05.247Z,19.73
2023-05-10T03:10:34.729Z,20.57
2023-05-10T03:13:15.279Z,20.09
2023-05-10T03:15:53.277Z,19.54
2023-05-10T03:18:25.099Z,19.93
2023-05-10T03:20:59.895Z,20.09
2023-05-10T03:23:32.239Z,19.71
2023-05-10T03:26:01.617Z,20.52
2023-05-10T03:28:30.310Z,20.09
2023-05-10T03:30:58.884Z,19.56
2023-05-10T03:33:28.445Z,19.76
2023-05-10T03:35:56.506Z,19.82
2023-05-10T03:38:24.445Z,20.40
2023-05-10T03:40:52.430Z,20.12
2023-05-10T03:43:20.442Z,20.06
2023-05-10T03:45:48.589Z,19.81
2023-05-10T03:48:16.860Z,19.85
2023-05-10T03:50:46.247Z,20.68
2023-05-10T03:53:15.211Z,20.11
2023-05-10T03:55:43.153Z,20.51
2023-05-10T03:58:13.203Z,19.83
2023-05-10T04:00:44.743Z,19.63
2023-05-10T04:03:13.469Z,19.72
2023-05-10T04:05:41.769Z,20.63
2023-05-10T04:08:11.081Z,20.14
2023-05-10T04:10:39.960Z,19.72
2023-05-10T04:13:08.177Z,19.69
2023-05-10T04:15:36.898Z,19.62
2023-05-10T04:18:06.520Z,19.93
2023-05-10T04:20:35.928Z,19.88
2023-05-10T04:23:04.057Z,20.27
2023-05-10T04:25:36.487Z,20.06
2023-05-10T04:28:04.627Z,19.59
2023-05-10T04:30:32.777Z,19.42
2023-05-10T04:33:00.957Z,19.28
2023-05-10T04:35:30.504Z,19.20
2023-05-10T04:37:58.418Z,19.66
2023-05-10T04:40:26.379Z,19.24
2023-05-10T04:42:55.657Z,18.88
2023-05-10T04:45:23.730Z,19.06
2023-05-10T04:47:51.691Z,19.31
2023-05-10T04:50:20.052Z,18.95
2023-05-10T04:52:48.035Z,19.00
2023-05-10T04:55:15.914Z,19.44
2023-05-10T04:57:43.984Z,19.88
2023-05-10T05:00:15.291Z,20.17
2023-05-10T05:02:45.034Z,20.22
2023-05-10T05:05:13.029Z,18.52
2023-05-10T05:07:41.218Z,18.83
2023-05-10T05:10:10.819Z,20.05
2023-05-10T05:12:39.228Z,20.73
2023-05-10T05:15:09.934Z,20.39
2023-05-10T05:17:39.636Z,19.02
2023-05-10T05:20:09.132Z,19.64
2023-05-10T05:22:38.342Z,19.84
2023-05-10T05:25:07.950Z,20.44
2023-05-10T05:27:36.105Z,20.10
2023-05-10T05:30:05.095Z,20.06
2023-05-10T05:32:33.284Z,19.66
2023-05-10T05:35:02.592Z,19.46
2023-05-10T05:37:30.544Z,20.66
2023-05-10T05:39:58.645Z,20.29
2023-05-10T05:42:27.626Z,20.46
2023-05-10T05:44:55.609Z,20.13
2023-05-10T05:47:23.857Z,19.81
2023-05-10T05:49:51.704Z,20.27
2023-05-10T05:52:22.193Z,20.10
2023-05-10T05:54:50.726Z,20.45
2023-05-10T05:57:18.786Z,21.13
2023-05-10T05:59:47.215Z,21.01
2023-05-10T06:02:17.672Z,20.95
2023-05-10T06:04:46.010Z,20.94
2023-05-10T06:07:14.075Z,21.38
2023-05-10T06:09:43.587Z,21.09
2023-05-10T06:12:12.731Z,21.48
2023-05-10T06:14:41.181Z,21.41
2023-05-10T06:17:09.194Z,20.68
2023-05-10T06:19:38.211Z,20.19
2023-05-10T06:22:06.622Z,19.87
2023-05-10T06:24:34.910Z,19.94
2023-05-10T06:27:05.310Z,19.56
2023-05-10T06:29:33.427Z,18.73
2023-05-10T06:32:01.608Z,18.72
2023-05-10T06:34:29.851Z,18.88
2023-05-10T06:36:58.013Z,18.88
2023-05-10T06:39:26.485Z,18.71
2023-05-10T06:41:55.461Z,18.91
2023-05-10T06:44:24.932Z,19.28
2023-05-10T06:46:54.503Z,19.10
2023-05-10T06:49:22.549Z,19.40
2023-05-10T06:51:50.614Z,19.41
2023-05-10T06:54:18.751Z,20.80
2023-05-10T06:56:47.207Z,20.92
2023-05-10T06:59:16.317Z,20.75
2023-05-10T07:01:46.178Z,20.59
2023-05-10T07:04:14.852Z,19.51
2023-05-10T07:06:43.213Z,20.51
2023-05-10T07:09:11.445Z,20.58
2023-05-10T07:11:39.624Z,20.76
2023-05-10T07:14:08.123Z,20.49
2023-05-10T07:16:37.324Z,21.49
2023-05-10T07:19:07.501Z,22.08
2023-05-10T07:21:36.264Z,21.35
2023-05-10T07:24:04.773Z,20.34
2023-05-10T07:26:32.965Z,21.40
2023-05-10T07:29:01.471Z,20.89
2023-05-10T07:31:29.531Z,27.07
2023-05-10T07:33:57.967Z,27.28
2023-05-10T07:36:27.508Z,26.58
2023-05-10T07:38:55.928Z,26.32
2023-05-10T07:41:24.259Z,26.58
2023-05-10T07:43:52.379Z,25.29
2023-05-10T07:46:20.492Z,24.75
2023-05-10T07:48:48.874Z,24.02
2023-05-10T07:51:16.908Z,24.30
2023-05-10T07:53:46.352Z,24.27
2023-05-10T07:56:26.109Z,23.85
2023-05-10T07:58:54.378Z,24.23
2023-05-10T08:01:22.570Z,24.69
2023-05-10T08:03:52.147Z,24.74
2023-05-10T08:06:21.257Z,25.38
2023-05-10T08:08:51.775Z,24.18
2023-05-10T08:11:20.547Z,24.56
2023-05-10T08:13:50.042Z,24.22
2023-05-10T08:16:18.658Z,23.39
2023-05-10T08:18:48.106Z,22.86
2023-05-10T08:21:16.935Z,23.72
2023-05-10T08:23:45.267Z,23.99
2023-05-10T08:26:14.852Z,23.88
2023-05-10T08:28:42.825Z,24.02
2023-05-10T08:31:11.044Z,23.99
2023-05-10T08:33:39.127Z,23.90
2023-05-10T08:36:07.263Z,37.75
2023-05-10T08:38:35.717Z,38.66
2023-05-10T08:41:04.643Z,23.07
2023-05-10T08:43:34.386Z,22.69
2023-05-10T08:46:04.087Z,22.76
2023-05-10T08:48:32.486Z,22.97
2023-05-10T08:51:03.133Z,22.54
2023-05-10T08:53:35.236Z,22.32
2023-05-10T08:56:04.802Z,21.93
2023-05-10T08:58:34.591Z,21.28
2023-05-10T09:01:03.392Z,22.74
2023-05-10T09:03:31.888Z,21.99
2023-05-10T09:06:00.171Z,21.82
2023-05-10T09:08:28.848Z,21.78
2023-05-10T09:10:57.502Z,22.00
2023-05-10T09:13:27.061Z,21.38
2023-05-10T09:15:57.631Z,21.46
2023-05-10T09:18:28.411Z,21.82
2023-05-10T09:20:56.984Z,22.09
2023-05-10T09:23:29.776Z,22.15
2023-05-10T09:26:05.638Z,22.32
2023-05-10T09:28:37.010Z,22.58
2023-05-10T09:31:06.626Z,22.59
2023-05-10T09:33:46.095Z,23.27
2023-05-10T09:36:14.956Z,22.63
2023-05-10T09:38:50.502Z,22.88
2023-05-10T09:41:19.538Z,23.43
2023-05-10T09:43:47.748Z,23.45
2023-05-10T09:46:17.360Z,23.74
2023-05-10T09:48:47.902Z,23.18
2023-05-10T09:51:22.531Z,23.32
2023-05-10T09:53:51.730Z,23.95
2023-05-10T09:56:35.935Z,23.41
2023-05-10T09:59:08.086Z,23.11
2023-05-10T10:01:38.196Z,23.94
2023-05-10T10:04:08.266Z,23.74
2023-05-10T10:06:39.725Z,23.80
2023-05-10T10:09:08.444Z,23.30
2023-05-10T10:11:37.509Z,24.39
2023-05-10T10:14:06.232Z,24.31
2023-05-10T10:16:35.114Z,24.09
2023-05-10T10:19:04.591Z,24.86
2023-05-10T10:21:32.739Z,24.86
2023-05-10T10:24:00.828Z,24.62
2023-05-10T10:26:29.382Z,24.99
2023-05-10T10:29:08.608Z,24.45
2023-05-10T10:31:41.310Z,24.71
2023-05-10T10:34:15.141Z,25.30
2023-05-10T10:36:45.583Z,25.62
2023-05-10T10:39:14.826Z,25.32
2023-05-10T10:41:52.219Z,25.70
2023-05-10T10:44:37.763Z,26.03
2023-05-10T10:47:09.729Z,25.90
2023-05-10T10:49:46.293Z,25.64
2023-05-10T10:52:35.252Z,25.60
2023-05-10T10:55:06.243Z,25.08
2023-05-10T10:57:35.753Z,25.09
2023-05-10T11:00:28.864Z,26.23
2023-05-10T11:03:00.053Z,26.77
2023-05-10T11:05:47.805Z,26.31
2023-05-10T11:08:18.870Z,26.70
2023-05-10T11:10:56.208Z,26.86
2023-05-10T11:13:32.052Z,27.29
2023-05-10T11:16:01.199Z,26.50
2023-05-10T11:18:30.689Z,26.88
2023-05-10T11:21:03.853Z,27.17
2023-05-10T11:23:33.263Z,26.44
2023-05-10T11:26:02.263Z,27.37
2023-05-10T11:28:30.338Z,28.06
2023-05-10T11:30:59.187Z,28.45
2023-05-10T11:33:27.266Z,27.91
2023-05-10T11:35:55.557Z,28.68
2023-05-10T11:38:25.027Z,29.10
2023-05-10T11:40:55.391Z,28.18
2023-05-10T11:43:31.606Z,28.36
2023-05-10T11:45:59.915Z,28.17
2023-05-10T11:48:27.972Z,28.03
2023-05-10T11:50:58.082Z,28.87
2023-05-10T11:53:28.513Z,29.47
2023-05-10T11:55:56.453Z,28.55
2023-05-10T11:58:25.044Z,28.83
2023-05-10T12:00:53.278Z,29.03
2023-05-10T12:03:21.513Z,28.76
2023-05-10T12:05:49.832Z,29.42
2023-05-10T12:08:22.128Z,29.85
2023-05-10T12:10:51.600Z,30.47
2023-05-10T12:13:21.439Z,30.08
2023-05-10T12:15:49.758Z,29.71
2023-05-10T12:18:25.718Z,29.34
2023-05-10T12:20:54.731Z,28.89
2023-05-10T12:23:23.432Z,28.39
2023-05-10T12:25:54.959Z,28.00
2023-05-10T12:28:22.929Z,27.76
2023-05-10T12:30:51.297Z,28.77
2023-05-10T12:33:19.716Z,27.93
2023-05-10T12:35:49.790Z,27.74
2023-05-10T12:38:30.524Z,27.43
2023-05-10T12:41:01.639Z,28.04
2023-05-10T12:43:30.061Z,27.85
2023-05-10T12:45:58.292Z,27.82
2023-05-10T12:48:27.219Z,29.51
2023-05-10T12:50:55.490Z,27.66
2023-05-10T12:53:23.815Z,27.31
2023-05-10T12:55:51.817Z,27.29
2023-05-10T12:58:35.012Z,27.83
2023-05-10T13:01:04.156Z,28.32
2023-05-10T13:03:32.675Z,28.36
2023-05-10T13:06:01.030Z,29.17
2023-05-10T13:08:34.448Z,27.03
2023-05-10T13:11:03.366Z,27.52
2023-05-10T13:13:32.897Z,27.43
2023-05-10T13:16:03.853Z,27.27
2023-05-10T13:18:31.943Z,28.69
2023-05-10T13:21:00.278Z,29.39
2023-05-10T13:23:31.618Z,27.89
2023-05-10T13:25:59.822Z,29.05
2023-05-10T13:28:27.789Z,29.75
2023-05-10T13:30:57.396Z,28.88
2023-05-10T13:33:25.599Z,28.67
2023-05-10T13:35:55.672Z,30.28
2023-05-10T13:38:24.070Z,29.88
2023-05-10T13:40:53.818Z,29.40
2023-05-10T13:43:22.008Z,28.74
2023-05-10T13:45:50.171Z,29.19
2023-05-10T13:48:19.727Z,29.05
2023-05-10T13:50:48.224Z,29.67
2023-05-10T13:53:16.445Z,28.42
2023-05-10T13:55:44.428Z,27.74
2023-05-10T13:58:13.181Z,27.16
2023-05-10T14:00:41.467Z,27.23
2023-05-10T14:03:12.059Z,25.71
2023-05-10T14:05:42.006Z,25.93
2023-05-10T14:08:11.028Z,27.40
2023-05-10T14:10:39.091Z,28.21
2023-05-10T14:13:07.204Z,25.88
2023-05-10T14:15:35.345Z,27.49
2023-05-10T14:18:03.423Z,25.90
2023-05-10T14:20:33.072Z,25.27
2023-05-10T14:23:02.640Z,24.62
2023-05-10T14:25:30.702Z,24.90
2023-05-10T14:27:59.018Z,24.20
2023-05-10T14:30:27.220Z,24.49
2023-05-10T14:32:56.364Z,23.56
2023-05-10T14:35:24.998Z,23.70
2023-05-10T14:37:53.428Z,23.75
2023-05-10T14:40:22.759Z,23.85
2023-05-10T14:42:51.076Z,23.68
2023-05-10T14:45:19.359Z,24.04
2023-05-10T14:47:47.435Z,23.48
2023-05-10T14:50:28.246Z,23.54
2023-05-10T14:53:03.834Z,23.51
2023-05-10T14:55:33.692Z,24.62
2023-05-10T14:58:01.977Z,24.55
2023-05-10T15:00:31.348Z,24.39
2023-05-10T15:02:59.969Z,25.35
2023-05-10T15:05:28.301Z,24.59
2023-05-10T15:07:56.837Z,24.19
2023-05-10T15:10:24.812Z,24.40
2023-05-10T15:12:54.210Z,24.49
2023-05-10T15:15:22.570Z,23.73
2023-05-10T15:17:50.696Z,24.53
2023-05-10T15:20:18.957Z,24.65
2023-05-10T15:22:46.989Z,24.65
2023-05-10T15:25:16.938Z,25.41
2023-05-10T15:27:45.843Z,24.79
2023-05-10T15:30:16.138Z,25.45
2023-05-10T15:32:44.217Z,25.31
2023-05-10T15:35:12.784Z,24.57
2023-05-10T15:37:41.064Z,25.13
2023-05-10T15:40:09.831Z,25.18
2023-05-10T15:42:38.092Z,25.35
2023-05-10T15:45:07.044Z,25.10
2023-05-10T15:47:36.519Z,25.25
2023-05-10T15:50:04.746Z,25.45
2023-05-10T15:52:32.724Z,25.62
2023-05-10T15:55:00.669Z,25.51
2023-05-10T15:57:28.612Z,24.67
2023-05-10T15:59:58.236Z,24.63
2023-05-10T16:02:26.281Z,24.30
2023-05-10T16:04:55.790Z,23.59
2023-05-10T16:07:23.793Z,24.12
2023-05-10T16:09:51.780Z,23.86
2023-05-10T16:12:20.072Z,23.40
2023-05-10T16:14:48.457Z,23.40
2023-05-10T16:17:16.849Z,22.32
2023-05-10T16:19:45.096Z,22.09
2023-05-10T16:22:14.556Z,21.95
2023-05-10T16:24:42.746Z,21.91
2023-05-10T16:27:12.491Z,22.27
2023-05-10T16:29:40.719Z,22.28
2023-05-10T16:32:08.693Z,22.87
2023-05-10T16:34:36.941Z,22.37
2023-05-10T16:37:06.397Z,22.47
2023-05-10T16:39:35.969Z,22.48
2023-05-10T16:42:04.393Z,22.01
2023-05-10T16:44:33.209Z,22.15
2023-05-10T16:47:01.651Z,24.18
2023-05-10T16:49:30.053Z,23.40
2023-05-10T16:51:58.323Z,22.89
2023-05-10T16:54:26.576Z,23.34
2023-05-10T16:56:56.084Z,24.15
2023-05-10T16:59:25.362Z,23.81
2023-05-10T17:01:53.911Z,23.73
2023-05-10T17:04:22.446Z,23.18
2023-05-10T17:06:50.866Z,23.37
2023-05-10T17:09:20.302Z,22.76
2023-05-10T17:11:48.437Z,23.94
2023-05-10T17:14:17.910Z,23.15
2023-05-10T17:16:46.336Z,23.47
2023-05-10T17:19:14.859Z,24.03
2023-05-10T17:21:43.160Z,23.36
2023-05-10T17:24:11.589Z,22.70
2023-05-10T17:26:40.493Z,22.53
2023-05-10T17:29:09.658Z,22.87
2023-05-10T17:31:40.944Z,22.71
2023-05-10T17:34:09.433Z,23.41
2023-05-10T17:36:38.207Z,23.34
2023-05-10T17:39:06.474Z,23.24
2023-05-10T17:41:39.736Z,23.58
2023-05-10T17:44:08.011Z,23.05
2023-05-10T17:46:36.956Z,23.31
2023-05-10T17:49:07.428Z,23.26
2023-05-10T17:51:35.750Z,22.94
2023-05-10T17:54:05.103Z,22.89
2023-05-10T17:56:34.129Z,22.93
2023-05-10T17:59:03.909Z,22.93
2023-05-10T18:01:32.526Z,23.03
2023-05-10T18:04:01.983Z,23.63
2023-05-10T18:06:37.387Z,23.58
2023-05-10T18:09:09.122Z,23.98
2023-05-10T18:11:39.017Z,22.96
2023-05-10T18:14:07.187Z,23.44
2023-05-10T18:16:35.701Z,23.35
2023-05-10T18:19:04.467Z,23.81
2023-05-10T18:21:34.602Z,22.29
2023-05-10T18:24:03.065Z,22.72
2023-05-10T18:26:31.056Z,23.62
2023-05-10T18:29:01.619Z,23.10
2023-05-10T18:31:30.202Z,23.20
2023-05-10T18:33:58.481Z,22.89
2023-05-10T18:36:27.566Z,23.54
2023-05-10T18:38:57.718Z,23.10
2023-05-10T18:41:26.905Z,22.17
2023-05-10T18:43:55.238Z,21.99
2023-05-10T18:46:24.207Z,21.64
2023-05-10T18:48:52.647Z,22.36
2023-05-10T18:51:22.113Z,21.95
2023-05-10T18:53:50.477Z,21.59
2023-05-10T18:56:20.272Z,22.22
2023-05-10T18:58:48.450Z,22.41
2023-05-10T19:01:17.206Z,22.61
2023-05-10T19:03:45.635Z,22.30
2023-05-10T19:06:14.103Z,21.98
2023-05-10T19:08:42.086Z,21.89
2023-05-10T19:11:10.963Z,21.71
2023-05-10T19:13:40.847Z,21.50
2023-05-10T19:16:14.317Z,21.81
2023-05-10T19:18:45.453Z,21.71
2023-05-10T19:21:13.851Z,21.90
2023-05-10T19:23:43.053Z,21.79
2023-05-10T19:26:12.635Z,21.42
2023-05-10T19:28:42.341Z,21.46
2023-05-10T19:31:10.616Z,22.13
2023-05-10T19:33:38.802Z,22.14
2023-05-10T19:36:07.233Z,22.32
2023-05-10T19:38:35.498Z,22.88
2023-05-10T19:41:04.063Z,22.66
2023-05-10T19:43:34.640Z,23.10
2023-05-10T19:46:04.542Z,22.79
2023-05-10T19:48:33.164Z,22.95
2023-05-10T19:51:02.319Z,23.11
2023-05-10T19:53:30.460Z,22.67
2023-05-10T19:56:04.430Z,22.56
2023-05-10T19:58:33.255Z,22.39
2023-05-10T20:01:01.683Z,22.42
2023-05-10T20:03:31.282Z,22.98
2023-05-10T20:05:59.730Z,23.09
2023-05-10T20:08:27.927Z,23.32
2023-05-10T20:10:57.847Z,23.55
2023-05-10T20:13:25.933Z,22.87
2023-05-10T20:15:56.929Z,22.43
2023-05-10T20:18:25.614Z,21.82
2023-05-10T20:21:01.477Z,21.75
2023-05-10T20:23:29.481Z,22.33
2023-05-10T20:25:57.794Z,22.58
2023-05-10T20:28:27.213Z,22.77
2023-05-10T20:31:00.611Z,22.60
2023-05-10T20:33:28.819Z,23.37
2023-05-10T20:35:58.846Z,22.67
2023-05-10T20:38:26.808Z,23.22
2023-05-10T20:40:55.470Z,23.58
2023-05-10T20:43:23.537Z,23.32
2023-05-10T20:45:51.864Z,22.79
2023-05-10T20:48:20.090Z,23.28
2023-05-10T20:50:48.364Z,22.88
2023-05-10T20:53:18.514Z,22.43
2023-05-10T20:55:47.175Z,22.63
2023-05-10T20:58:15.200Z,22.95
2023-05-10T21:00:43.350Z,21.58
2023-05-10T21:03:11.631Z,22.34
2023-05-10T21:05:39.882Z,22.55
2023-05-10T21:08:07.904Z,22.55
2023-05-10T21:10:37.425Z,22.86
2023-05-10T21:13:05.539Z,22.24
2023-05-10T21:15:33.721Z,21.83
2023-05-10T21:18:01.713Z,22.35
2023-05-10T21:20:30.600Z,22.76
2023-05-10T21:22:58.644Z,22.75
2023-05-10T21:25:27.004Z,23.44
2023-05-10T21:27:56.332Z,23.15
2023-05-10T21:30:24.493Z,23.06
2023-05-10T21:32:54.020Z,23.17
2023-05-10T21:35:22.201Z,22.95
2023-05-10T21:37:50.118Z,22.60
2023-05-10T21:40:18.707Z,22.86
2023-05-10T21:42:49.562Z,22.90
2023-05-10T21:45:20.220Z,23.16
2023-05-10T21:47:49.369Z,23.02
2023-05-10T21:50:17.578Z,22.50
2023-05-10T21:52:46.004Z,22.56
2023-05-10T21:55:13.889Z,22.76
2023-05-10T21:57:42.301Z,22.56
2023-05-10T22:00:11.276Z,22.83
2023-05-10T22:02:41.910Z,23.08
2023-05-10T22:05:10.565Z,22.64
2023-05-10T22:07:38.797Z,22.77
2023-05-10T22:10:07.971Z,23.21
2023-05-10T22:12:36.086Z,23.07
2023-05-10T22:15:10.321Z,22.92
2023-05-10T22:17:40.000Z,22.55
2023-05-10T22:20:10.647Z,22.80
2023-05-10T22:22:38.601Z,22.41
2023-05-10T22:25:08.100Z,22.12
2023-05-10T22:27:36.788Z,22.34
2023-05-10T22:30:06.093Z,22.59
2023-05-10T22:32:34.373Z,23.04
2023-05-10T22:35:03.213Z,23.13
2023-05-10T22:37:32.668Z,23.34
2023-05-10T22:40:00.616Z,23.05
2023-05-10T22:42:29.000Z,23.06
2023-05-10T22:44:57.259Z,23.00
2023-05-10T22:47:25.292Z,23.16
2023-05-10T22:49:53.445Z,23.23
2023-05-10T22:52:21.551Z,22.30
2023-05-10T22:54:51.129Z,22.30
2023-05-10T22:57:19.441Z,22.10
2023-05-10T22:59:48.797Z,22.26
2023-05-10T23:02:18.022Z,22.16
2023-05-10T23:04:46.539Z,22.09
2023-05-10T23:07:14.594Z,22.04
2023-05-10T23:09:42.742Z,22.18
2023-05-10T23:12:12.162Z,22.12
2023-05-10T23:14:40.182Z,22.00
2023-05-10T23:17:08.261Z,22.04
2023-05-10T23:19:36.316Z,21.73
2023-05-10T23:22:04.396Z,22.44
2023-05-10T23:24:32.479Z,22.38
2023-05-10T23:27:00.443Z,22.28
2023-05-10T23:29:30.224Z,22.49
2023-05-10T23:31:58.402Z,22.00
2023-05-10T23:34:26.512Z,22.46
2023-05-10T23:36:54.488Z,22.42
2023-05-10T23:39:23.125Z,22.11
2023-05-10T23:41:51.777Z,22.59
2023-05-10T23:44:20.042Z,22.83
2023-05-10T23:46:49.614Z,23.23
2023-05-10T23:49:18.367Z,22.37
2023-05-10T23:51:46.508Z,22.78
2023-05-10T23:54:14.689Z,22.27
2023-05-10T23:56:43.090Z,22.43
2023-05-10T23:59:11.509Z,22.22
